Terminal Aerodrome Forecast
Issued by NWS Blacksburg, VA

Home | Current Version | Previous Version | Text Only | Print | Product List | Glossary On
Versions: 1 2 3 4 5 6 7 8 9 10 11 12 13 14 15 16 17 18 19 20 21 22 23 24 25 26 27 28 29 30 31 32 33 34 35 36 37 38 39 40
000
FTUS41 KRNK 171120
TAFROA
TAF
KROA 171120Z 1712/1812 28003KT P6SM SCT100
     FM171700 VRB03KT P6SM VCTS BKN050CB
     FM180000 VRB03KT P6SM BKN060
     FM180700 00000KT P6SM SCT150=

USA.gov is the U.S. government's official web portal to all federal, state and local government web resources and services.